Time;durP1;ratioP1;P1;durP2;ratioP2;P2;SDS_P1;SDS_P2;PMS_P1;PMS_P2;Temp;Humidity;BMP_temperature;BMP_pressure;BME280_temperature;BME280_humidity;BME280_pressure;Samples;Min_cycle;Max_cycle;Signal;HPM_P1;HPM_P2
2023/08/30 07:32:37;;;;;;;10.77;9.63;;;14.80;99.90;;;;;;5045188;27;2267277;-79
2023/08/30 07:35:04;;;;;;;10.27;9.07;;;;;;;;;;5091598;28;20040;-80
2023/08/30 07:37:30;;;;;;;11.98;8.90;;;;;;;;;;5106317;28;20028;-79
2023/08/30 07:39:56;;;;;;;10.38;8.88;;;;;;;;;;5103892;28;20032;-79
2023/08/30 07:42:22;;;;;;;10.85;9.50;;;;;;;;;;5102769;28;20127;-80
2023/08/30 07:44:48;;;;;;;11.60;9.15;;;;;;;;;;5103974;28;20004;-80
2023/08/30 07:47:13;;;;;;;11.52;9.57;;;15.20;99.90;;;;;;5102301;28;20047;-81
2023/08/30 07:49:39;;;;;;;15.35;10.15;;;15.30;99.90;;;;;;5106447;28;20107;-80
2023/08/30 07:52:05;;;;;;;11.75;10.00;;;15.30;99.90;;;;;;5107559;28;20009;-80
2023/08/30 07:54:31;;;;;;;11.30;9.65;;;15.30;99.90;;;;;;5104715;28;20036;-78
2023/08/30 07:56:57;;;;;;;13.07;9.68;;;;;;;;;;5091175;28;20059;-80
2023/08/30 07:59:23;;;;;;;12.55;10.25;;;;;;;;;;5096601;28;20114;-79
2023/08/30 08:01:49;;;;;;;11.27;9.85;;;;;;;;;;5100755;28;20056;-80
2023/08/30 08:04:14;;;;;;;13.55;10.57;;;15.40;99.90;;;;;;5097840;28;20046;-80
2023/08/30 08:06:40;;;;;;;12.82;9.95;;;15.30;99.90;;;;;;5102010;28;20044;-81
2023/08/30 08:09:07;;;;;;;13.80;11.18;;;15.40;99.90;;;;;;5102915;28;20028;-81
2023/08/30 08:11:33;;;;;;;13.57;11.93;;;15.60;99.90;;;;;;5104298;28;20039;-80
2023/08/30 08:13:59;;;;;;;13.23;11.68;;;15.70;99.90;;;;;;5102338;28;20044;-81
2023/08/30 08:16:24;;;;;;;14.43;12.13;;;15.70;99.90;;;;;;5102888;28;20071;-79
2023/08/30 08:18:51;;;;;;;16.08;13.23;;;15.70;99.90;;;;;;5098513;28;20032;-80
2023/08/30 08:21:17;;;;;;;20.00;13.73;;;16.70;99.90;;;;;;5099457;28;20043;-80
2023/08/30 08:23:43;;;;;;;16.38;13.05;;;15.90;99.90;;;;;;5101149;28;20020;-81
2023/08/30 08:26:09;;;;;;;16.17;14.10;;;15.90;99.90;;;;;;5100689;28;20036;-81
2023/08/30 08:28:34;;;;;;;17.63;14.13;;;15.90;99.90;;;;;;5100383;28;20037;-80
2023/08/30 08:31:00;;;;;;;16.10;13.95;;;16.00;99.90;;;;;;5088726;28;20028;-79
2023/08/30 08:33:26;;;;;;;19.73;15.60;;;16.30;99.90;;;;;;5099719;28;20036;-80
2023/08/30 08:35:51;;;;;;;20.25;15.13;;;16.40;99.90;;;;;;5097354;28;20028;-78
2023/08/30 08:38:17;;;;;;;17.25;14.43;;;16.50;99.90;;;;;;5092025;28;20027;-78
2023/08/30 08:40:43;;;;;;;20.15;15.13;;;17.00;99.90;;;;;;5083488;28;20038;-80
2023/08/30 08:43:12;;;;;;;16.70;13.48;;;16.70;99.90;;;;;;5087512;28;20023;-79
2023/08/30 08:45:38;;;;;;;16.92;13.50;;;18.30;99.90;;;;;;5079564;28;20033;-79
2023/08/30 08:48:05;;;;;;;17.75;13.07;;;17.00;99.90;;;;;;5069283;28;20539;-80
2023/08/30 08:50:32;;;;;;;17.00;13.90;;;17.30;99.90;;;;;;5067193;28;20614;-80
2023/08/30 08:52:58;;;;;;;16.80;13.25;;;17.40;99.90;;;;;;5066143;28;20031;-80
2023/08/30 08:55:26;;;;;;;18.40;13.95;;;;;;;;;;5072755;28;20032;-80
2023/08/30 08:57:53;;;;;;;17.25;13.63;;;18.00;99.90;;;;;;5069083;28;20059;-79
2023/08/30 09:00:19;;;;;;;16.27;13.05;;;18.20;99.90;;;;;;5070380;28;20093;-79
2023/08/30 09:02:46;;;;;;;17.23;13.35;;;18.30;99.90;;;;;;5074467;28;20281;-81
2023/08/30 09:05:11;;;;;;;17.95;12.98;;;18.20;99.90;;;;;;5065250;28;20032;-77
2023/08/30 09:07:37;;;;;;;14.00;11.25;;;18.60;99.90;;;;;;5069035;28;20486;-78
2023/08/30 09:10:03;;;;;;;19.80;11.30;;;18.60;99.90;;;;;;5070403;28;20099;-80
2023/08/30 09:12:33;;;;;;;13.73;10.88;;;18.80;99.90;;;;;;5065347;28;20058;-79
2023/08/30 09:14:59;;;;;;;12.52;10.27;;;19.10;99.90;;;;;;5069391;28;20625;-79
2023/08/30 09:17:36;;;;;;;12.15;9.88;;;18.80;99.90;;;;;;5071070;28;20056;-80
2023/08/30 09:20:12;;;;;;;11.50;9.30;;;18.70;99.90;;;;;;5078728;28;20092;-80
2023/08/30 09:22:39;;;;;;;10.20;8.40;;;18.70;99.90;;;;;;5097569;28;20033;-79
2023/08/30 09:25:09;;;;;;;10.82;7.95;;;18.80;99.90;;;;;;5086706;28;20020;-80
2023/08/30 09:27:35;;;;;;;8.48;6.75;;;18.90;99.90;;;;;;5083638;28;20024;-79
2023/08/30 09:30:02;;;;;;;11.73;7.35;;;19.10;99.90;;;;;;5087404;28;20066;-80
2023/08/30 09:32:28;;;;;;;9.48;6.57;;;18.90;99.90;;;;;;5088983;28;20059;-81
2023/08/30 09:34:54;;;;;;;10.90;7.47;;;18.80;99.90;;;;;;5087003;28;20025;-80
2023/08/30 09:37:21;;;;;;;10.80;7.75;;;18.60;99.90;;;;;;5090606;28;20032;-80
2023/08/30 09:39:52;;;;;;;11.93;8.35;;;18.60;99.90;;;;;;5084424;28;20017;-80
2023/08/30 09:42:18;;;;;;;14.25;8.23;;;18.60;99.90;;;;;;5074217;28;20033;-79
2023/08/30 09:44:44;;;;;;;14.45;8.45;;;;;;;;;;5073254;28;20028;-80
2023/08/30 09:47:12;;;;;;;9.63;7.30;;;18.70;99.90;;;;;;5071527;28;20109;-79
2023/08/30 09:49:45;;;;;;;12.23;7.15;;;19.10;99.90;;;;;;5083031;28;20016;-80
2023/08/30 09:52:14;;;;;;;10.00;6.25;;;19.10;99.90;;;;;;5082234;28;20024;-80
2023/08/30 09:54:43;;;;;;;7.88;5.50;;;19.90;99.90;;;;;;5069676;28;20055;-78
2023/08/30 09:57:09;;;;;;;8.50;6.15;;;19.40;99.90;;;;;;5064971;28;20074;-80
2023/08/30 09:59:35;;;;;;;7.00;5.47;;;19.40;99.90;;;;;;5061933;28;20437;-80
2023/08/30 10:02:02;;;;;;;10.93;4.97;;;19.70;99.90;;;;;;5061714;28;20485;-79
2023/08/30 10:04:28;;;;;;;8.75;5.15;;;19.90;99.90;;;;;;5063736;28;20036;-79
2023/08/30 10:06:57;;;;;;;10.32;4.93;;;20.10;99.90;;;;;;5066246;28;20013;-79
2023/08/30 10:09:23;;;;;;;7.75;4.90;;;20.30;99.90;;;;;;5069242;28;20020;-80
2023/08/30 10:11:50;;;;;;;7.70;4.93;;;20.50;99.90;;;;;;5063086;28;20044;-79
2023/08/30 10:14:17;;;;;;;8.93;5.65;;;20.60;99.90;;;;;;5062813;28;20031;-79
2023/08/30 10:16:45;;;;;;;7.75;4.22;;;20.70;99.90;;;;;;5066049;28;20025;-77
2023/08/30 10:19:23;;;;;;;7.03;4.70;;;20.60;99.90;;;;;;5062721;28;20044;-78
2023/08/30 10:22:08;;;;;;;8.30;4.68;;;20.40;99.90;;;;;;5061688;28;20041;-77
2023/08/30 10:24:42;;;;;;;7.03;4.60;;;20.40;99.90;;;;;;5048814;28;20032;-80
2023/08/30 10:27:09;;;;;;;5.32;4.05;;;20.30;99.90;;;;;;5055641;28;20024;-79
2023/08/30 10:29:36;;;;;;;7.63;4.10;;;20.40;99.90;;;;;;5066020;28;20406;-79
2023/08/30 10:32:06;;;;;;;7.07;3.60;;;20.40;99.90;;;;;;5064536;28;20036;-79
2023/08/30 10:34:36;;;;;;;5.45;3.60;;;20.50;99.90;;;;;;5060732;28;20036;-80
2023/08/30 10:37:10;;;;;;;;;;;20.50;99.90;;;;;;5064335;28;20028;-78
2023/08/30 10:39:42;;;;;;;6.60;3.35;;;20.40;99.90;;;;;;5078852;28;19908;-78
2023/08/30 10:42:10;;;;;;;5.68;3.10;;;20.30;99.90;;;;;;5061890;28;20025;-77
2023/08/30 10:44:50;;;;;;;4.47;2.90;;;20.20;99.90;;;;;;5060488;28;20063;-75
2023/08/30 10:47:20;;;;;;;6.25;3.70;;;19.90;99.90;;;;;;5056018;28;20024;-76
2023/08/30 10:49:49;;;;;;;4.15;2.70;;;20.00;99.90;;;;;;5065185;28;20486;-78
2023/08/30 10:52:15;;;;;;;4.73;2.90;;;20.50;99.90;;;;;;5069445;28;20043;-76
2023/08/30 10:54:40;;;;;;;6.10;2.80;;;20.40;99.90;;;;;;5052312;28;20520;-78
2023/08/30 10:57:13;;;;;;;5.47;2.72;;;20.70;99.90;;;;;;5060883;28;20032;-78
2023/08/30 10:59:40;;;;;;;6.35;2.40;;;21.00;99.90;;;;;;5051922;28;20405;-76
2023/08/30 11:02:06;;;;;;;6.70;4.15;;;21.10;99.90;;;;;;5064983;28;20543;-76
2023/08/30 11:04:32;;;;;;;7.28;3.30;;;21.30;99.90;;;;;;5062831;28;20028;-77
2023/08/30 11:06:58;;;;;;;3.38;2.40;;;21.20;99.90;;;;;;5053387;28;20082;-76
2023/08/30 11:09:24;;;;;;;4.28;2.33;;;21.20;99.90;;;;;;5058676;28;20025;-78
2023/08/30 11:11:51;;;;;;;5.82;2.45;;;21.10;99.90;;;;;;5059947;28;20033;-77
2023/08/30 11:14:18;;;;;;;4.38;2.53;;;20.70;99.90;;;;;;5074049;28;20033;-77
2023/08/30 11:16:45;;;;;;;4.97;2.45;;;21.00;99.90;;;;;;5072239;28;20151;-77
2023/08/30 11:19:11;;;;;;;6.55;2.55;;;21.10;99.90;;;;;;5066845;28;20028;-81
2023/08/30 11:21:40;;;;;;;8.00;2.70;;;21.20;99.90;;;;;;5076059;28;20029;-83
2023/08/30 11:24:07;;;;;;;5.38;2.97;;;20.80;99.90;;;;;;5070221;28;20051;-79
2023/08/30 11:26:32;;;;;;;5.30;2.67;;;21.10;99.90;;;;;;5067138;28;20024;-80
2023/08/30 11:29:07;;;;;;;5.10;2.72;;;20.90;99.90;;;;;;5063588;28;20040;-76
2023/08/30 11:31:33;;;;;;;5.45;2.80;;;20.90;99.90;;;;;;5065715;28;20269;-80
2023/08/30 11:34:00;;;;;;;5.18;2.72;;;20.80;99.90;;;;;;5058387;28;20036;-77
2023/08/30 11:36:34;;;;;;;5.18;2.63;;;20.80;99.90;;;;;;5063706;28;20033;-78
2023/08/30 11:39:00;;;;;;;4.40;2.60;;;20.90;99.90;;;;;;5063710;28;20097;-78
2023/08/30 11:41:27;;;;;;;5.45;2.38;;;21.10;99.90;;;;;;5056965;28;20135;-77
2023/08/30 11:43:54;;;;;;;8.57;2.67;;;21.40;99.90;;;;;;5061812;28;20028;-77
2023/08/30 11:46:20;;;;;;;3.95;2.40;;;21.50;99.90;;;;;;5059940;28;20031;-80
2023/08/30 11:48:47;;;;;;;5.15;2.45;;;21.60;99.90;;;;;;5075236;28;20032;-80
2023/08/30 11:51:13;;;;;;;7.38;3.10;;;21.50;99.90;;;;;;5067227;28;20081;-78
2023/08/30 11:53:40;;;;;;;4.90;2.40;;;21.40;99.90;;;;;;5063878;28;20028;-76
2023/08/30 11:56:07;;;;;;;4.28;2.20;;;21.30;99.90;;;;;;5052586;28;20054;-77
2023/08/30 11:58:34;;;;;;;4.43;2.28;;;21.10;99.90;;;;;;5062847;28;20056;-78
2023/08/30 12:01:01;;;;;;;4.80;2.60;;;21.00;99.90;;;;;;5057804;28;20044;-80
2023/08/30 12:03:30;;;;;;;6.45;2.72;;;21.00;99.90;;;;;;5056921;28;20036;-82
2023/08/30 12:05:57;;;;;;;4.15;2.40;;;21.10;99.90;;;;;;5065822;28;21280;-77
2023/08/30 12:08:28;;;;;;;6.88;2.85;;;21.30;99.90;;;;;;5069083;28;20036;-77
2023/08/30 12:10:55;;;;;;;5.38;2.38;;;21.40;99.90;;;;;;5058288;28;20037;-79
2023/08/30 12:13:28;;;;;;;6.47;2.67;;;21.40;99.90;;;;;;5062481;28;20032;-78
2023/08/30 12:15:55;;;;;;;4.10;2.28;;;21.30;99.90;;;;;;5067509;28;20027;-79
2023/08/30 12:18:31;;;;;;;5.20;2.53;;;22.30;99.90;;;;;;5067957;28;20107;-79
2023/08/30 12:21:03;;;;;;;3.88;2.40;;;21.40;99.90;;;;;;5063276;28;20049;-77
2023/08/30 12:23:32;;;;;;;4.20;2.40;;;21.50;99.90;;;;;;5069181;28;20062;-78
2023/08/30 12:26:05;;;;;;;5.63;2.70;;;21.40;99.90;;;;;;5069612;28;20025;-82
2023/08/30 12:28:35;;;;;;;4.95;2.88;;;21.40;99.90;;;;;;5067488;28;20029;-80
2023/08/30 12:31:02;;;;;;;6.57;2.97;;;21.50;99.90;;;;;;5066895;28;20055;-77
2023/08/30 12:33:28;;;;;;;4.35;2.60;;;21.60;99.90;;;;;;5061938;28;20595;-77
2023/08/30 12:35:54;;;;;;;4.80;2.75;;;21.80;99.90;;;;;;5076301;28;20592;-78
2023/08/30 12:38:20;;;;;;;5.28;2.50;;;21.80;99.90;;;;;;5072703;28;20037;-81
2023/08/30 12:40:47;;;;;;;6.93;2.70;;;21.80;99.90;;;;;;5060007;28;20044;-80
2023/08/30 12:43:14;;;;;;;5.18;2.60;;;21.90;99.90;;;;;;5085503;28;20085;-77
2023/08/30 12:45:40;;;;;;;6.80;2.53;;;21.80;99.90;;;;;;5065382;28;20032;-79
2023/08/30 12:48:09;;;;;;;4.35;2.33;;;21.80;99.90;;;;;;5049584;28;20025;-76
2023/08/30 12:50:38;;;;;;;10.25;2.92;;;21.70;99.90;;;;;;5064069;28;20029;-78
2023/08/30 12:53:06;;;;;;;4.47;2.55;;;21.60;99.90;;;;;;5065992;28;20532;-78
2023/08/30 12:55:32;;;;;;;5.22;2.63;;;21.70;99.90;;;;;;5064439;28;20052;-77
2023/08/30 12:57:58;;;;;;;4.90;2.50;;;21.70;99.90;;;;;;5070859;28;21253;-80
2023/08/30 13:00:24;;;;;;;6.10;2.47;;;21.60;99.90;;;;;;5070644;28;20068;-76
2023/08/30 13:02:51;;;;;;;3.70;2.42;;;21.90;99.90;;;;;;5065570;28;20647;-79
2023/08/30 13:05:17;;;;;;;4.43;2.40;;;22.10;99.90;;;;;;5082600;28;20025;-77
2023/08/30 13:07:43;;;;;;;5.43;2.83;;;22.20;99.90;;;;;;5065280;28;20081;-78
2023/08/30 13:10:09;;;;;;;4.88;2.42;;;23.30;99.90;;;;;;5075887;28;20097;-78
2023/08/30 13:12:35;;;;;;;5.18;2.35;;;22.30;99.20;;;;;;5059383;28;20435;-76
2023/08/30 13:15:01;;;;;;;4.22;2.35;;;22.00;99.20;;;;;;5067187;28;20036;-77
2023/08/30 13:17:27;;;;;;;5.30;2.50;;;21.90;99.40;;;;;;5063831;28;20394;-77
2023/08/30 13:19:53;;;;;;;4.25;2.70;;;22.20;99.90;;;;;;5064278;28;20035;-78
2023/08/30 13:22:18;;;;;;;5.10;2.50;;;21.80;99.90;;;;;;5059376;28;20029;-76
2023/08/30 13:24:45;;;;;;;4.28;2.92;;;21.70;99.90;;;;;;5063680;28;20403;-77
2023/08/30 13:27:11;;;;;;;7.15;3.15;;;21.70;99.90;;;;;;5058368;28;20144;-78
2023/08/30 13:29:37;;;;;;;4.55;2.85;;;21.50;99.90;;;;;;5061998;28;20035;-78
2023/08/30 13:32:03;;;;;;;5.60;3.17;;;21.30;99.90;;;;;;5061050;28;20490;-76
2023/08/30 13:34:28;;;;;;;6.30;2.90;;;21.20;99.90;;;;;;5058818;28;20042;-77
2023/08/30 13:36:54;;;;;;;4.93;2.63;;;21.40;99.90;;;;;;5068013;28;20016;-78
2023/08/30 13:39:20;;;;;;;8.23;2.47;;;21.40;99.90;;;;;;5064066;28;20071;-77
2023/08/30 13:41:46;;;;;;;4.70;2.38;;;21.20;99.90;;;;;;5063633;28;20139;-78
2023/08/30 13:44:13;;;;;;;5.70;2.72;;;21.70;99.90;;;;;;5060829;28;20032;-75
2023/08/30 13:46:40;;;;;;;4.57;2.22;;;21.30;99.90;;;;;;5066656;28;20478;-78
2023/08/30 13:49:06;;;;;;;5.30;2.05;;;21.50;99.90;;;;;;5060927;28;20024;-78
2023/08/30 13:51:32;;;;;;;4.28;2.60;;;21.50;99.90;;;;;;5064366;28;20236;-79
2023/08/30 13:53:58;;;;;;;6.60;2.60;;;22.50;99.90;;;;;;5065441;28;20073;-79
2023/08/30 13:56:24;;;;;;;6.90;3.30;;;21.70;99.90;;;;;;5066591;28;20037;-78
2023/08/30 13:58:50;;;;;;;4.28;2.38;;;21.70;99.90;;;;;;5067461;28;20059;-78
2023/08/30 14:01:16;;;;;;;5.38;2.90;;;21.70;99.90;;;;;;5068502;28;20044;-84
2023/08/30 14:03:42;;;;;;;5.45;2.50;;;21.70;99.90;;;;;;5088010;28;20031;-81
2023/08/30 14:06:08;;;;;;;6.90;2.80;;;21.60;99.90;;;;;;5068533;28;20025;-80
2023/08/30 14:08:34;;;;;;;5.10;2.50;;;21.50;99.90;;;;;;5084249;28;20028;-77
2023/08/30 14:10:59;;;;;;;4.05;2.13;;;21.30;99.90;;;;;;5067810;28;20029;-83
2023/08/30 14:13:32;;;;;;;3.67;2.35;;;21.20;99.90;;;;;;5068321;28;20067;-81
2023/08/30 14:16:08;;;;;;;6.07;2.45;;;21.10;99.90;;;;;;5070484;28;20052;-78
2023/08/30 14:18:34;;;;;;;4.78;2.72;;;20.90;99.90;;;;;;5082708;28;20032;-82
2023/08/30 14:21:01;;;;;;;3.88;2.38;;;20.90;99.90;;;;;;5060834;28;20029;-81
2023/08/30 14:23:27;;;;;;;4.53;2.28;;;20.70;99.90;;;;;;5072254;28;20047;-81
2023/08/30 14:26:12;;;;;;;5.03;2.58;;;20.60;99.90;;;;;;5074096;28;20088;-77
2023/08/30 14:28:39;;;;;;;5.00;2.78;;;20.50;99.90;;;;;;5076530;28;20025;-80
2023/08/30 14:31:10;;;;;;;6.40;2.70;;;20.40;99.90;;;;;;5083616;28;20111;-83
2023/08/30 14:33:36;;;;;;;6.72;2.80;;;20.40;99.90;;;;;;5085703;28;20039;-85
2023/08/30 14:36:02;;;;;;;5.45;2.60;;;20.40;99.90;;;;;;5084546;28;20020;-82
2023/08/30 14:38:28;;;;;;;6.55;2.60;;;20.40;99.90;;;;;;5084789;28;20028;-79
2023/08/30 14:40:57;;;;;;;8.32;3.25;;;20.20;99.90;;;;;;5085974;28;20064;-82
2023/08/30 14:43:23;;;;;;;8.93;3.10;;;20.30;99.90;;;;;;5084985;28;20036;-83
2023/08/30 14:45:49;;;;;;;4.72;2.67;;;20.30;99.90;;;;;;5084437;28;20298;-84
2023/08/30 14:48:14;;;;;;;5.75;2.75;;;20.30;99.90;;;;;;5087175;28;20034;-85
2023/08/30 14:50:40;;;;;;;5.68;3.03;;;20.40;99.90;;;;;;5080690;28;20039;-80
2023/08/30 14:53:06;;;;;;;5.82;3.10;;;20.40;99.90;;;;;;5069593;28;20024;-78
2023/08/30 14:55:32;;;;;;;5.30;2.40;;;20.50;99.90;;;;;;5082080;28;20033;-75
2023/08/30 14:57:57;;;;;;;6.05;2.95;;;20.50;99.90;;;;;;5077677;28;20044;-77
2023/08/30 15:00:23;;;;;;;3.88;2.40;;;20.50;99.90;;;;;;5080623;28;20048;-79
2023/08/30 15:02:49;;;;;;;5.53;2.45;;;20.80;99.90;;;;;;5077726;28;20695;-79
2023/08/30 15:05:15;;;;;;;4.82;2.63;;;21.00;99.90;;;;;;5071840;28;20055;-78
2023/08/30 15:07:41;;;;;;;5.47;2.10;;;21.00;99.90;;;;;;5066596;28;20478;-78
2023/08/30 15:10:06;;;;;;;5.07;2.55;;;21.00;99.90;;;;;;5062237;28;20104;-80
2023/08/30 15:12:32;;;;;;;6.72;2.78;;;21.20;99.90;;;;;;5062412;28;20047;-78
2023/08/30 15:14:58;;;;;;;4.68;2.75;;;21.10;99.90;;;;;;5064079;28;20078;-76
2023/08/30 15:17:23;;;;;;;4.50;2.42;;;21.10;99.90;;;;;;5083758;28;20025;-84
2023/08/30 15:19:49;;;;;;;4.78;2.22;;;21.00;99.90;;;;;;5087159;28;20033;-82
2023/08/30 15:22:16;;;;;;;5.50;2.40;;;21.00;99.90;;;;;;5069585;28;20509;-79
2023/08/30 15:24:41;;;;;;;3.28;2.17;;;20.90;99.90;;;;;;5073345;28;20029;-82
2023/08/30 15:27:07;;;;;;;7.82;2.42;;;20.70;99.90;;;;;;5073107;28;20679;-76
2023/08/30 15:29:32;;;;;;;5.75;2.40;;;20.60;99.90;;;;;;5075036;28;20056;-79
2023/08/30 15:31:58;;;;;;;4.45;2.10;;;20.50;99.90;;;;;;5074499;28;20437;-75
2023/08/30 15:34:24;;;;;;;4.15;2.03;;;20.50;99.90;;;;;;5068486;28;20024;-77
2023/08/30 15:36:49;;;;;;;4.10;2.00;;;20.40;99.90;;;;;;5075023;28;20036;-75
2023/08/30 15:39:18;;;;;;;5.13;2.58;;;20.40;99.90;;;;;;5091621;28;20033;-75
2023/08/30 15:41:44;;;;;;;4.88;2.42;;;20.20;99.90;;;;;;5068689;28;20031;-77
2023/08/30 15:44:10;;;;;;;3.97;1.90;;;20.30;99.90;;;;;;5068622;28;20092;-77
2023/08/30 15:46:36;;;;;;;4.43;2.50;;;20.30;99.90;;;;;;5064733;28;20056;-75
2023/08/30 15:49:02;;;;;;;4.78;1.77;;;20.30;99.90;;;;;;5069609;28;20124;-77
2023/08/30 15:51:28;;;;;;;2.90;2.00;;;20.30;99.90;;;;;;5066145;28;20044;-74
2023/08/30 15:53:54;;;;;;;2.72;1.73;;;20.10;99.90;;;;;;5066109;28;20033;-78
2023/08/30 15:56:20;;;;;;;3.78;2.00;;;20.00;99.90;;;;;;5069282;28;20030;-75
2023/08/30 15:58:47;;;;;;;4.43;1.95;;;20.00;99.90;;;;;;5066502;28;20568;-75
2023/08/30 16:01:14;;;;;;;4.03;2.00;;;20.90;99.90;;;;;;5070177;28;20040;-78
2023/08/30 16:03:40;;;;;;;5.05;2.30;;;20.00;99.90;;;;;;5066146;28;20474;-78
2023/08/30 16:06:06;;;;;;;4.07;2.30;;;19.90;99.90;;;;;;5070742;28;20681;-75
2023/08/30 16:08:31;;;;;;;3.60;2.15;;;19.90;99.90;;;;;;5069770;28;20036;-78
2023/08/30 16:10:57;;;;;;;6.07;2.63;;;19.90;99.90;;;;;;5070210;28;20044;-78
2023/08/30 16:13:23;;;;;;;4.82;1.85;;;19.90;99.90;;;;;;5068361;28;20039;-76
2023/08/30 16:15:48;;;;;;;5.10;1.75;;;19.60;99.90;;;;;;5075505;28;20032;-76
2023/08/30 16:18:15;;;;;;;4.15;1.52;;;19.40;99.90;;;;;;5064167;28;20070;-78
2023/08/30 16:20:41;;;;;;;5.30;2.20;;;19.10;99.90;;;;;;5062956;28;20176;-75
2023/08/30 16:23:07;;;;;;;10.57;2.97;;;19.00;99.90;;;;;;5068174;28;20092;-78
2023/08/30 16:25:32;;;;;;;6.10;2.20;;;18.90;99.90;;;;;;5082422;28;20035;-79
2023/08/30 16:27:58;;;;;;;4.07;2.00;;;18.80;99.90;;;;;;5073906;28;20131;-79
2023/08/30 16:30:25;;;;;;;4.85;2.63;;;18.50;99.90;;;;;;5083600;28;20021;-86
2023/08/30 16:32:51;;;;;;;4.38;2.00;;;18.00;99.90;;;;;;5086398;28;20029;-82
2023/08/30 16:35:17;;;;;;;4.80;2.15;;;18.00;99.90;;;;;;5072691;28;20024;-78
2023/08/30 16:37:42;;;;;;;4.32;2.55;;;17.90;99.90;;;;;;5074157;28;20028;-79
2023/08/30 16:40:08;;;;;;;7.82;4.35;;;17.80;99.90;;;;;;5070629;28;20029;-79
2023/08/30 16:42:34;;;;;;;4.60;2.08;;;17.70;99.90;;;;;;5079134;28;20051;-79
2023/08/30 16:44:59;;;;;;;3.08;2.05;;;17.70;99.90;;;;;;5070329;28;20021;-84
2023/08/30 16:47:26;;;;;;;4.82;2.33;;;17.70;99.90;;;;;;5079135;28;20039;-85
2023/08/30 16:49:52;;;;;;;3.17;1.98;;;19.10;99.90;;;;;;5076584;28;20047;-85
2023/08/30 16:52:22;;;;;;;7.30;3.08;;;17.70;99.90;;;;;;5092237;28;20055;-82
2023/08/30 16:54:47;;;;;;;5.10;2.63;;;19.00;99.90;;;;;;5075868;28;20025;-81
2023/08/30 16:57:14;;;;;;;4.20;2.08;;;17.70;99.90;;;;;;5071316;28;20573;-79
2023/08/30 16:59:40;;;;;;;4.43;2.25;;;17.70;99.90;;;;;;5070099;28;20028;-82
2023/08/30 17:02:06;;;;;;;6.75;3.15;;;17.70;99.90;;;;;;5074433;28;20113;-79
2023/08/30 17:04:32;;;;;;;3.83;2.13;;;17.70;99.90;;;;;;5074027;28;20046;-80
2023/08/30 17:07:01;;;;;;;3.33;2.20;;;17.90;99.90;;;;;;5082659;28;20033;-82
2023/08/30 17:09:31;;;;;;;6.55;2.35;;;18.20;99.90;;;;;;5079208;28;20020;-83
2023/08/30 17:11:58;;;;;;;4.13;2.15;;;17.70;99.90;;;;;;5083656;28;20044;-84
2023/08/30 17:14:24;;;;;;;3.97;2.20;;;17.60;99.90;;;;;;5082146;28;20005;-83
2023/08/30 17:16:50;;;;;;;4.35;2.38;;;17.60;99.90;;;;;;5080458;28;20371;-83
2023/08/30 17:19:16;;;;;;;5.13;2.75;;;17.60;99.90;;;;;;5095913;28;20028;-86
2023/08/30 17:21:41;;;;;;;6.75;3.00;;;17.30;99.90;;;;;;5078386;28;20028;-82
2023/08/30 17:24:07;;;;;;;5.97;3.33;;;17.30;99.90;;;;;;5076660;28;20080;-82
2023/08/30 17:26:33;;;;;;;6.15;3.00;;;17.30;99.90;;;;;;5082657;28;20017;-83
2023/08/30 17:29:00;;;;;;;4.45;2.70;;;17.30;99.90;;;;;;5077094;28;20028;-84
2023/08/30 17:31:26;;;;;;;6.40;2.90;;;17.30;99.90;;;;;;5080195;28;20095;-84
2023/08/30 17:33:53;;;;;;;6.13;2.67;;;17.30;99.90;;;;;;5081494;28;20029;-81
2023/08/30 17:36:18;;;;;;;7.00;2.85;;;17.30;99.90;;;;;;5085089;28;20055;-85
2023/08/30 17:38:44;;;;;;;5.20;2.80;;;;;;;;;;5079065;28;20025;-81
2023/08/30 17:41:11;;;;;;;5.20;2.65;;;;;;;;;;5081149;28;20024;-83
2023/08/30 17:43:37;;;;;;;4.53;2.50;;;;;;;;;;5079651;28;20021;-86
2023/08/30 17:46:03;;;;;;;5.95;2.33;;;;;;;;;;5100694;28;20032;-83
2023/08/30 17:48:30;;;;;;;3.92;2.25;;;;;;;;;;5081928;28;20024;-83
2023/08/30 17:50:56;;;;;;;5.38;2.40;;;17.30;99.90;;;;;;5081669;28;22267;-81
2023/08/30 17:53:21;;;;;;;5.55;3.70;;;17.30;99.90;;;;;;5077834;28;20052;-80
2023/08/30 17:55:56;;;;;;;4.00;2.10;;;18.10;99.90;;;;;;5083744;28;20747;-82
2023/08/30 17:58:29;;;;;;;3.88;2.22;;;17.40;99.90;;;;;;5082691;28;20111;-82
2023/08/30 18:00:57;;;;;;;2.88;2.05;;;17.10;99.90;;;;;;5082465;28;20033;-85
2023/08/30 18:03:28;;;;;;;3.95;2.13;;;17.10;99.90;;;;;;5086126;28;20024;-83
2023/08/30 18:06:00;;;;;;;2.63;1.58;;;17.00;99.90;;;;;;5075325;28;20496;-86
2023/08/30 18:08:26;;;;;;;4.95;2.05;;;;;;;;;;5080156;28;20041;-82
2023/08/30 18:10:52;;;;;;;3.13;1.85;;;;;;;;;;5077125;28;20035;-81
2023/08/30 18:13:18;;;;;;;3.33;1.65;;;;;;;;;;5079136;28;20035;-85
2023/08/30 18:15:44;;;;;;;3.72;1.58;;;;;;;;;;5076279;28;20040;-82
2023/08/30 18:18:10;;;;;;;3.42;2.00;;;;;;;;;;5085699;28;20202;-82
2023/08/30 18:20:36;;;;;;;5.88;2.60;;;16.60;99.90;;;;;;5098569;28;20055;-89
2023/08/30 18:23:02;;;;;;;5.57;2.22;;;16.50;99.90;;;;;;5091341;28;20900;-87
2023/08/30 18:25:28;;;;;;;6.72;3.92;;;16.50;99.90;;;;;;5092198;28;20064;-87
2023/08/30 18:27:55;;;;;;;3.53;2.10;;;16.40;99.90;;;;;;5087363;28;20044;-83
2023/08/30 18:30:21;;;;;;;4.68;1.60;;;16.40;99.90;;;;;;5098476;28;20082;-82
2023/08/30 18:32:47;;;;;;;2.80;1.30;;;16.40;99.90;;;;;;5080964;28;20038;-86
2023/08/30 18:35:13;;;;;;;3.35;1.70;;;16.30;99.90;;;;;;5090559;28;20120;-82
2023/08/30 18:37:39;;;;;;;5.85;2.22;;;16.30;99.90;;;;;;5086053;28;20033;-86
2023/08/30 18:40:05;;;;;;;3.83;1.75;;;16.20;99.90;;;;;;5103561;28;20100;-88
2023/08/30 18:42:31;;;;;;;5.80;2.40;;;16.30;99.90;;;;;;5080952;28;20056;-83
2023/08/30 18:44:57;;;;;;;5.30;2.20;;;16.20;99.90;;;;;;5099998;28;20063;-83
2023/08/30 18:47:23;;;;;;;3.92;1.95;;;16.30;99.90;;;;;;5101749;28;20092;-85
2023/08/30 18:49:49;;;;;;;6.13;2.05;;;16.30;99.90;;;;;;5086073;28;20039;-85
2023/08/30 18:52:20;;;;;;;3.38;1.65;;;16.30;99.90;;;;;;5084374;28;20088;-85
2023/08/30 18:54:46;;;;;;;3.10;1.60;;;16.20;99.90;;;;;;5098529;28;20103;-83
2023/08/30 18:57:13;;;;;;;6.30;2.05;;;16.30;99.90;;;;;;5077247;28;20062;-83
2023/08/30 18:59:39;;;;;;;6.40;2.15;;;16.20;99.90;;;;;;5081517;28;20028;-89
2023/08/30 19:02:09;;;;;;;4.82;2.20;;;16.20;99.90;;;;;;5072201;28;20058;-88
2023/08/30 19:04:35;;;;;;;5.72;2.20;;;16.20;99.90;;;;;;5084092;28;20031;-85
2023/08/30 19:07:01;;;;;;;5.45;2.10;;;16.10;99.90;;;;;;5083034;28;20044;-86
2023/08/30 19:09:27;;;;;;;4.32;1.88;;;17.50;99.90;;;;;;5097513;28;20025;-84
2023/08/30 19:11:53;;;;;;;5.65;1.92;;;16.10;99.90;;;;;;5080057;28;20060;-82
2023/08/30 19:14:19;;;;;;;4.40;2.00;;;16.10;99.90;;;;;;5083889;28;20050;-88
2023/08/30 19:16:45;;;;;;;4.43;1.83;;;16.00;99.90;;;;;;5078866;28;20076;-89
2023/08/30 19:19:10;;;;;;;5.07;2.33;;;16.00;99.90;;;;;;5085257;28;20127;-86
2023/08/30 19:21:36;;;;;;;6.63;2.53;;;17.40;99.90;;;;;;5084169;28;20032;-85
2023/08/30 19:24:04;;;;;;;7.35;2.70;;;16.00;99.90;;;;;;5095271;28;20025;-86
2023/08/30 19:26:30;;;;;;;7.82;3.05;;;16.00;99.90;;;;;;5069022;22;20116;-84
2023/08/30 19:28:56;;;;;;;7.55;3.35;;;;;;;;;;5017169;28;20017;-85
2023/08/30 19:31:23;;;;;;;3.97;2.50;;;;;;;;;;5017089;28;20018;-86
2023/08/30 19:33:51;;;;;;;4.38;2.53;;;15.90;99.90;;;;;;5012371;28;20041;-87
2023/08/30 19:36:18;;;;;;;5.40;2.50;;;;;;;;;;4991259;28;20026;-86
2023/08/30 19:38:47;;;;;;;8.10;2.75;;;15.80;99.90;;;;;;4995599;28;20615;-86
2023/08/30 19:41:15;;;;;;;6.22;2.65;;;;;;;;;;5004703;28;20030;-88
2023/08/30 19:43:41;;;;;;;9.07;3.63;;;;;;;;;;4983570;28;20027;-86
2023/08/30 19:46:09;;;;;;;4.75;2.20;;;15.80;99.90;;;;;;5000875;28;20030;-86
2023/08/30 19:48:35;;;;;;;7.47;2.50;;;;;;;;;;4999405;28;20035;-89
2023/08/30 19:51:01;;;;;;;5.60;2.40;;;;;;;;;;4999318;28;20037;-88
2023/08/30 19:53:28;;;;;;;5.28;2.50;;;;;;;;;;4976943;28;20076;-87
2023/08/30 19:55:58;;;;;;;4.97;2.60;;;;;;;;;;4977626;28;20033;-87
2023/08/30 19:58:24;;;;;;;;;;;15.80;99.90;;;;;;4982761;28;20030;-87
2023/08/30 20:00:50;;;;;;;4.72;2.42;;;;;;;;;;4999217;28;19932;-85
2023/08/30 20:03:17;;;;;;;6.07;2.35;;;;;;;;;;5004087;28;20026;-89
2023/08/30 20:05:51;;;;;;;5.75;2.80;;;15.80;99.90;;;;;;4989502;28;20350;-87
2023/08/30 20:08:17;;;;;;;7.47;3.00;;;;;;;;;;5006079;28;20031;-85
2023/08/30 20:10:43;;;;;;;5.80;2.50;;;15.80;99.90;;;;;;4995466;28;20049;-86
2023/08/30 20:13:10;;;;;;;5.10;2.10;;;;;;;;;;5009256;28;20034;-87
2023/08/30 20:15:37;;;;;;;5.30;2.28;;;;;;;;;;4992539;28;20022;-85
2023/08/30 20:18:03;;;;;;;5.75;3.13;;;15.80;99.90;;;;;;5006003;28;20022;-86
2023/08/30 20:20:34;;;;;;;4.03;2.25;;;15.80;99.90;;;;;;5005529;28;20065;-86
2023/08/30 20:23:00;;;;;;;4.88;2.60;;;;;;;;;;4994409;28;20042;-88
2023/08/30 20:25:29;;;;;;;9.20;3.00;;;15.60;99.90;;;;;;5008472;28;20026;-87